Share

Aqaba Port, Jordan

TalaBay Marina (IAQABAAQ3) Elev 36 ft | 29.41 °N, 34.98 °E | Change Station

Current weather conditions updated 12 minutes ago

Mostly Cloudy
Mostly Cloudy
97.8 °F
Feels Like 95 °F
N
2.0
Wind Variable Wind from ENE
Sunrise 6:08 AM
Sunset 7:09 PM
Moon Waning Gibbous

Today is forecast to be nearly the same temperature as yesterday.

Pressure 29.80 in
Visibility 3.7 miles
Clouds Mostly Cloudy 4500 ft
Heat Index 95 °F
Dew Point 52 °F
Humidity 21%
Rainfall 0.00 in
Snow Depth Not available.
UV 2.6 out of 16
Pollen Not available.
Air Quality Not available.
Flu Activity Not available.
METAR OJAQ 201000Z 25006KT 6000 BKN045 34/10 Q1009 TEMPO 20025G35KT 1000 -TS DS FEW050CB

More Conditions Fewer Conditions

Pressure 29.80 in
Visibility 3.7 miles
Clouds Mostly Cloudy 4500 ft
Heat Index 95 °F
Dew Point 52 °F
Humidity 21%
Rainfall 0.00 in
Snow Depth Not available.
UV 2.6 out of 16
Pollen Not available.
Air Quality Not available.
Flu Activity Not available.
METAR OJAQ 201000Z 25006KT 6000 BKN045 34/10 Q1009 TEMPO 20025G35KT 1000 -TS DS FEW050CB

More Conditions Fewer Conditions

10-Day Weather Forecast

Almanac

Astronomy

Apr. 20, 2014 Rise Set
Actual Time 6:08 AM EEST 7:09 PM EEST
Civil Twilight 5:44 AM EEST 7:34 PM EEST
Nautical Twilight 5:15 AM EEST 8:03 PM EEST
Astronomical Twilight 4:45 AM EEST 8:33 PM EEST
Moon No Moon Rise 10:16 AM EEST
Length of Visible Light 13h 50m
Length of Day
13h 00m
Tomorrow will be 1m 39s longer.
Waning Gibbous, 71% of the Moon is Illuminated
Today
Waning Gibbous
Apr 22
Last Quarter
Apr 29
New
May 6
First Quarter
May 14
Full

Yesterday's Extremes

Country Highs Country Lows

Community

  • Easter Greetings
    Easter Greetings
  • Sunny day at the coast-Cape Arago Lighthouse
    Sunny day at the coast-Cape Arago Lighthouse
  • Cherry Blossoms
    Cherry Blossoms
  • White-Crowned Sparrow
    White-Crowned Sparrow
  • New Day
    New Day

WunderPhotos

Upload Photos

1,703,132 photos uploaded!

WunderBlogs® & News

Nearby

Snow Depth

Not available.

Coastal Water Temperatures

Place Temperature
No Stations Reporting

Earthquake Activity

City Distance Mag. Time & Date
No recent earthquake activity has been reported nearby.
Minimum magnitude displayed is 2.5.

Nearby Weather Stations

Station Location Temp. Heat Index Dew Point Humidity Wind Precip. Elev Updated Type
TalaBay Marina, Aqaba 97.8 °F 95 °F 52 °F 21% ENE  at  2.0 mph - / hr 36 ft 1:07 PM IDT Normal

Show More Stations Show Fewer Stations

What do you think?

We're not finished. Please let us know what you like, what you don't like, and what you are still missing.